Time;durP1;ratioP1;P1;durP2;ratioP2;P2;SDS_P1;SDS_P2;PMS_P1;PMS_P2;Temp;Humidity;BMP_temperature;BMP_pressure;BME280_temperature;BME280_humidity;BME280_pressure;Samples;Min_cycle;Max_cycle;Signal;HPM_P1;HPM_P2
2022/05/11 00:01:53;;;;;;;0.00;0.00;;;14.50;91.00;;;;;;5114168;28;20052;-77
2022/05/11 00:04:19;;;;;;;0.00;0.00;;;14.50;90.70;;;;;;5097096;28;20054;-76
2022/05/11 00:06:45;;;;;;;0.00;0.00;;;14.50;91.10;;;;;;5097074;28;20085;-76
2022/05/11 00:09:12;;;;;;;0.00;0.00;;;14.50;90.90;;;;;;5113875;28;20414;-76
2022/05/11 00:11:38;;;;;;;0.00;0.00;;;14.50;90.90;;;;;;5096499;28;20063;-76
2022/05/11 00:14:06;;;;;;;0.00;0.00;;;14.50;90.90;;;;;;5097005;28;20372;-77
2022/05/11 00:16:33;;;;;;;0.00;0.00;;;14.50;91.10;;;;;;5114169;28;20043;-76
2022/05/11 00:18:59;;;;;;;0.00;0.00;;;14.60;91.10;;;;;;5096978;28;20048;-76
2022/05/11 00:21:25;;;;;;;0.13;0.13;;;14.50;91.40;;;;;;5114029;28;20113;-76
2022/05/11 00:23:52;;;;;;;0.00;0.00;;;14.50;91.30;;;;;;5114001;28;20134;-76
2022/05/11 00:26:18;;;;;;;0.10;0.10;;;14.50;91.00;;;;;;5096752;28;20119;-77
2022/05/11 00:28:44;;;;;;;0.00;0.00;;;14.50;91.10;;;;;;5113544;28;20079;-76
2022/05/11 00:31:10;;;;;;;0.52;0.00;;;14.50;91.30;;;;;;5113817;28;20051;-76
2022/05/11 00:33:36;;;;;;;0.00;0.00;;;14.60;91.20;;;;;;5112847;28;20455;-76
2022/05/11 00:36:03;;;;;;;0.00;0.00;;;14.60;91.20;;;;;;5113456;28;20487;-76
2022/05/11 00:38:29;;;;;;;0.00;0.00;;;14.60;91.40;;;;;;5113403;28;20035;-76
2022/05/11 00:40:58;;;;;;;0.00;0.00;;;14.50;91.40;;;;;;5113527;28;20061;-76
2022/05/11 00:43:31;;;;;;;0.00;0.00;;;14.60;91.40;;;;;;5096361;28;20048;-76
2022/05/11 00:46:21;;;;;;;0.47;0.25;;;14.60;91.20;;;;;;5113591;28;20048;-76
2022/05/11 00:51:41;;;;;;;0.00;0.00;;;14.60;91.50;;;;;;5113323;28;20047;-76
2022/05/11 00:54:07;;;;;;;0.00;0.00;;;14.60;91.90;;;;;;5113389;28;20570;-77
2022/05/11 00:56:37;;;;;;;0.00;0.00;;;14.60;92.10;;;;;;5113230;28;20039;-77
2022/05/11 00:59:12;;;;;;;0.00;0.00;;;14.60;92.00;;;;;;5096237;28;20440;-76
2022/05/11 01:01:39;;;;;;;0.00;0.00;;;14.60;92.20;;;;;;5113141;28;20436;-76
2022/05/11 01:04:18;;;;;;;0.08;0.08;;;14.60;92.30;;;;;;5096207;28;20471;-76
2022/05/11 01:06:45;;;;;;;0.80;0.43;;;14.60;92.20;;;;;;5113082;28;20043;-76
2022/05/11 01:09:12;;;;;;;0.00;0.00;;;14.50;92.40;;;;;;5113252;28;20047;-76
2022/05/11 01:11:50;;;;;;;0.00;0.00;;;14.50;92.70;;;;;;5112758;28;20135;-76
2022/05/11 01:14:21;;;;;;;0.00;0.00;;;14.50;92.60;;;;;;5096254;28;20087;-77
2022/05/11 01:16:48;;;;;;;0.43;0.43;;;14.50;92.70;;;;;;5113030;28;20399;-76
2022/05/11 01:19:35;;;;;;;0.17;0.10;;;14.50;92.70;;;;;;5113016;28;20043;-76
2022/05/11 01:22:04;;;;;;;0.00;0.00;;;14.50;92.80;;;;;;5096669;28;20062;-76
2022/05/11 01:24:37;;;;;;;1.00;0.43;;;14.50;92.90;;;;;;5113059;28;20039;-76
2022/05/11 01:27:28;;;;;;;0.00;0.00;;;14.50;93.00;;;;;;5113017;28;20441;-76
2022/05/11 01:29:56;;;;;;;0.00;0.00;;;14.50;93.10;;;;;;5112937;28;20496;-77
2022/05/11 01:32:24;;;;;;;0.00;0.00;;;14.50;93.20;;;;;;5112999;28;20050;-77
2022/05/11 01:35:05;;;;;;;0.00;0.00;;;14.50;93.50;;;;;;5113331;28;20046;-77
2022/05/11 01:37:36;;;;;;;0.10;0.00;;;14.50;93.50;;;;;;5095720;28;20068;-76
2022/05/11 01:40:02;;;;;;;0.00;0.00;;;14.50;93.70;;;;;;5113158;28;20043;-77
2022/05/11 01:42:28;;;;;;;0.00;0.00;;;14.50;93.60;;;;;;5096314;28;20064;-76
2022/05/11 01:44:53;;;;;;;0.05;0.00;;;14.50;93.50;;;;;;5113853;28;20069;-77
2022/05/11 01:47:20;;;;;;;0.00;0.00;;;14.50;93.80;;;;;;5116372;28;20047;-77
2022/05/11 01:49:45;;;;;;;0.10;0.10;;;14.50;93.90;;;;;;5099668;28;20047;-77
2022/05/11 01:52:11;;;;;;;0.00;0.00;;;14.40;93.70;;;;;;5099777;28;20043;-76
2022/05/11 01:54:36;;;;;;;0.00;0.00;;;14.40;94.00;;;;;;5116851;28;20040;-76
2022/05/11 01:57:02;;;;;;;0.00;0.00;;;14.40;94.20;;;;;;5117109;28;20069;-77
2022/05/11 01:59:28;;;;;;;0.00;0.00;;;14.40;94.10;;;;;;5100090;28;20475;-76
2022/05/11 02:01:54;;;;;;;0.15;0.10;;;14.40;94.00;;;;;;5116443;28;20479;-76
2022/05/11 02:09:49;;;;;;;0.00;0.00;;;14.40;94.30;;;;;;5116811;28;20051;-76
2022/05/11 02:12:17;;;;;;;0.00;0.00;;;14.40;94.60;;;;;;5116247;28;20399;-76
2022/05/11 02:14:42;;;;;;;0.00;0.00;;;14.40;94.50;;;;;;5099349;28;20051;-77
2022/05/11 02:17:08;;;;;;;0.00;0.00;;;14.40;94.50;;;;;;5116144;28;20048;-76
2022/05/11 02:19:33;;;;;;;0.00;0.00;;;14.40;94.40;;;;;;5098931;28;20047;-76
2022/05/11 02:21:59;;;;;;;0.00;0.00;;;14.40;94.70;;;;;;5116540;28;20290;-76
2022/05/11 02:24:25;;;;;;;0.00;0.00;;;14.30;94.30;;;;;;5099286;28;20059;-76
2022/05/11 02:26:50;;;;;;;0.00;0.00;;;14.40;94.60;;;;;;5115995;28;20040;-76
2022/05/11 02:29:16;;;;;;;0.00;0.00;;;14.40;94.50;;;;;;5115941;28;20055;-77
2022/05/11 02:31:42;;;;;;;0.00;0.00;;;14.30;94.30;;;;;;5115689;28;20154;-77
2022/05/11 02:34:07;;;;;;;0.17;0.15;;;14.30;94.40;;;;;;5115953;28;20035;-76
2022/05/11 02:36:34;;;;;;;0.00;0.00;;;14.30;94.30;;;;;;5116066;28;20100;-76
2022/05/11 02:39:01;;;;;;;0.00;0.00;;;14.40;94.40;;;;;;5115945;28;20054;-76
2022/05/11 02:41:27;;;;;;;0.00;0.00;;;14.30;94.60;;;;;;5115643;28;20039;-77
2022/05/11 02:43:52;;;;;;;0.00;0.00;;;14.30;94.40;;;;;;5115625;28;20039;-77
2022/05/11 02:46:18;;;;;;;0.00;0.00;;;14.30;94.00;;;;;;5115663;28;20047;-77
2022/05/11 02:48:43;;;;;;;0.00;0.00;;;14.30;94.10;;;;;;5114542;28;20040;-76
2022/05/11 02:51:09;;;;;;;0.00;0.00;;;14.30;94.30;;;;;;5096228;28;20056;-76
2022/05/11 02:53:35;;;;;;;0.00;0.00;;;14.30;94.40;;;;;;5114860;28;20082;-76
2022/05/11 02:56:01;;;;;;;0.00;0.00;;;14.30;94.40;;;;;;5098172;28;20475;-76
2022/05/11 02:58:34;;;;;;;0.10;0.10;;;14.30;94.70;;;;;;5115000;28;20039;-76
2022/05/11 03:01:01;;;;;;;0.00;0.00;;;14.30;94.40;;;;;;5116439;28;20110;-76
2022/05/11 03:03:33;;;;;;;0.00;0.00;;;14.30;94.40;;;;;;5115331;28;20044;-76
2022/05/11 03:06:00;;;;;;;0.00;0.00;;;14.30;94.40;;;;;;5115348;28;20047;-77
2022/05/11 03:08:25;;;;;;;0.00;0.00;;;14.30;94.50;;;;;;5097882;28;20489;-76
2022/05/11 03:10:51;;;;;;;0.00;0.00;;;14.30;94.50;;;;;;5115381;28;20062;-76
2022/05/11 03:13:17;;;;;;;0.00;0.00;;;14.30;94.50;;;;;;5115293;28;20044;-76
2022/05/11 03:15:42;;;;;;;0.00;0.00;;;14.30;94.60;;;;;;5115206;28;20053;-76
2022/05/11 03:18:08;;;;;;;0.00;0.00;;;14.30;94.40;;;;;;5115465;28;20395;-76
2022/05/11 03:20:34;;;;;;;0.00;0.00;;;14.30;94.60;;;;;;5098632;28;20073;-76
2022/05/11 03:23:00;;;;;;;0.00;0.00;;;14.30;94.50;;;;;;5114899;28;20048;-76
2022/05/11 03:25:26;;;;;;;0.00;0.00;;;14.30;94.30;;;;;;5098038;28;20126;-76
2022/05/11 03:27:53;;;;;;;0.00;0.00;;;14.30;94.60;;;;;;5114622;28;20082;-76
2022/05/11 03:30:19;;;;;;;0.00;0.00;;;14.30;94.60;;;;;;5114912;28;20105;-76
2022/05/11 03:35:29;;;;;;;0.00;0.00;;;14.30;94.40;;;;;;5114648;28;20058;-76
2022/05/11 03:37:54;;;;;;;0.20;0.13;;;14.30;94.40;;;;;;5114645;28;20043;-76
2022/05/11 03:40:20;;;;;;;0.00;0.00;;;14.30;94.20;;;;;;5114541;28;20525;-76
2022/05/11 03:42:46;;;;;;;0.00;0.00;;;14.20;94.40;;;;;;5114874;28;20031;-76
2022/05/11 03:45:24;;;;;;;0.00;0.00;;;14.30;94.50;;;;;;5114337;28;20040;-76
2022/05/11 03:47:49;;;;;;;0.17;0.00;;;14.30;94.50;;;;;;5114156;28;20122;-76
2022/05/11 03:50:19;;;;;;;0.00;0.00;;;14.20;94.70;;;;;;5114797;28;20127;-77
2022/05/11 03:52:45;;;;;;;0.00;0.00;;;14.30;94.80;;;;;;5114619;28;20126;-76
2022/05/11 03:55:11;;;;;;;0.00;0.00;;;14.30;94.90;;;;;;5097284;28;20086;-76
2022/05/11 03:57:38;;;;;;;0.00;0.00;;;14.30;94.90;;;;;;5115054;28;20135;-76
2022/05/11 04:00:08;;;;;;;0.00;0.00;;;14.30;95.00;;;;;;5114422;28;20044;-76
2022/05/11 04:02:35;;;;;;;0.00;0.00;;;14.30;94.90;;;;;;5114032;28;20068;-76
2022/05/11 04:05:00;;;;;;;0.00;0.00;;;14.30;95.00;;;;;;5097581;28;20063;-76
2022/05/11 04:07:26;;;;;;;0.00;0.00;;;14.20;95.00;;;;;;5113667;28;20380;-76
2022/05/11 04:09:52;;;;;;;0.00;0.00;;;14.20;95.00;;;;;;5114827;28;20122;-76
2022/05/11 04:12:17;;;;;;;0.00;0.00;;;14.30;95.20;;;;;;5113684;28;20051;-76
2022/05/11 04:14:43;;;;;;;0.00;0.00;;;14.20;95.30;;;;;;5114146;28;20043;-76
2022/05/11 04:17:09;;;;;;;0.10;0.00;;;14.20;95.50;;;;;;5097005;28;20039;-76
2022/05/11 04:19:36;;;;;;;0.00;0.00;;;14.30;95.50;;;;;;5114317;28;20048;-76
2022/05/11 04:22:02;;;;;;;0.00;0.00;;;14.30;95.60;;;;;;5113781;28;20066;-76
2022/05/11 04:24:27;;;;;;;0.00;0.00;;;14.30;95.60;;;;;;5097057;28;20475;-76
2022/05/11 04:26:53;;;;;;;0.00;0.00;;;14.30;95.90;;;;;;5096615;28;20051;-76
2022/05/11 04:29:19;;;;;;;0.00;0.00;;;14.30;95.80;;;;;;5096917;28;20055;-76
2022/05/11 04:31:45;;;;;;;0.00;0.00;;;14.30;96.10;;;;;;5113151;28;20560;-76
2022/05/11 04:34:13;;;;;;;0.00;0.00;;;14.30;95.80;;;;;;5096728;28;20063;-77
2022/05/11 04:36:39;;;;;;;0.20;0.00;;;14.30;96.10;;;;;;5113588;28;20055;-76
2022/05/11 04:39:06;;;;;;;2.00;0.28;;;14.30;96.20;;;;;;5113505;28;20050;-76
2022/05/11 04:41:32;;;;;;;0.05;0.05;;;14.40;96.40;;;;;;5114052;28;20040;-77
2022/05/11 04:43:58;;;;;;;0.00;0.00;;;14.40;96.30;;;;;;5096714;28;20054;-76
2022/05/11 04:46:23;;;;;;;0.38;0.10;;;14.40;96.50;;;;;;5113616;28;20035;-77
2022/05/11 04:48:49;;;;;;;0.00;0.00;;;14.40;96.40;;;;;;5113389;28;20479;-76
2022/05/11 04:51:14;;;;;;;0.15;0.00;;;14.40;96.40;;;;;;5096529;28;20063;-76
2022/05/11 04:53:40;;;;;;;0.00;0.00;;;14.50;96.70;;;;;;5113501;28;20046;-76
2022/05/11 04:56:06;;;;;;;0.00;0.00;;;14.50;96.50;;;;;;5113500;28;20039;-76
2022/05/11 04:58:32;;;;;;;0.00;0.00;;;14.50;96.40;;;;;;5096666;28;20053;-77
2022/05/11 05:00:58;;;;;;;0.10;0.00;;;14.60;96.40;;;;;;5096517;28;20051;-76
2022/05/11 05:03:24;;;;;;;0.10;0.00;;;14.60;96.20;;;;;;5113314;28;20044;-76
2022/05/11 05:05:50;;;;;;;0.20;0.20;;;14.60;96.20;;;;;;5113151;28;20051;-77
2022/05/11 05:08:16;;;;;;;0.00;0.00;;;14.60;96.20;;;;;;5096368;28;20052;-77
2022/05/11 05:10:42;;;;;;;0.00;0.00;;;14.70;96.00;;;;;;5113113;28;20139;-78
2022/05/11 05:13:11;;;;;;;0.32;0.32;;;14.70;96.00;;;;;;5096122;28;20067;-78
2022/05/11 05:15:39;;;;;;;0.10;0.10;;;14.70;96.10;;;;;;5113278;28;20044;-78
2022/05/11 05:18:06;;;;;;;0.10;0.10;;;14.80;95.90;;;;;;5096454;28;20056;-77
2022/05/11 05:20:32;;;;;;;0.85;0.10;;;14.80;96.10;;;;;;5098262;28;20050;-77
2022/05/11 05:22:58;;;;;;;0.03;0.03;;;14.80;95.80;;;;;;5100311;28;20058;-77
2022/05/11 05:25:25;;;;;;;0.00;0.00;;;14.80;95.60;;;;;;5100182;28;20047;-78
2022/05/11 05:27:52;;;;;;;0.13;0.00;;;14.80;95.70;;;;;;5099727;28;20122;-78
2022/05/11 05:33:03;;;;;;;0.10;0.10;;;14.90;95.60;;;;;;5116827;28;20488;-78
2022/05/11 05:35:29;;;;;;;0.00;0.00;;;15.00;95.60;;;;;;5100338;28;20094;-78
2022/05/11 05:37:55;;;;;;;0.35;0.25;;;15.00;95.70;;;;;;5116918;28;20087;-78
2022/05/11 05:40:21;;;;;;;0.00;0.00;;;15.00;96.00;;;;;;5117093;28;20044;-78
2022/05/11 05:42:47;;;;;;;0.00;0.00;;;15.00;95.90;;;;;;5099937;28;20048;-78
2022/05/11 05:45:13;;;;;;;0.25;0.25;;;15.10;95.80;;;;;;5116929;28;20118;-78
2022/05/11 05:47:38;;;;;;;0.00;0.00;;;15.10;95.60;;;;;;5116392;28;20162;-78
2022/05/11 05:50:05;;;;;;;0.00;0.00;;;15.10;95.90;;;;;;5116797;28;20043;-77
2022/05/11 05:52:32;;;;;;;0.00;0.00;;;15.10;95.70;;;;;;5099937;28;20073;-78
2022/05/11 05:54:58;;;;;;;0.00;0.00;;;15.20;96.10;;;;;;5116576;28;20048;-78
2022/05/11 05:57:24;;;;;;;0.00;0.00;;;15.20;96.00;;;;;;5099769;28;20055;-78
2022/05/11 05:59:50;;;;;;;0.00;0.00;;;15.30;95.90;;;;;;5116409;28;20458;-78
2022/05/11 06:02:16;;;;;;;0.00;0.00;;;15.30;95.90;;;;;;5116574;28;20036;-78
2022/05/11 06:04:47;;;;;;;0.00;0.00;;;15.40;96.20;;;;;;5099731;28;20074;-78
2022/05/11 06:07:14;;;;;;;0.00;0.00;;;15.40;95.90;;;;;;5116263;28;20372;-78
2022/05/11 06:09:40;;;;;;;0.00;0.00;;;15.60;95.80;;;;;;5116579;28;20058;-77
2022/05/11 06:12:08;;;;;;;0.10;0.00;;;15.60;95.90;;;;;;5115802;28;20052;-77
2022/05/11 06:14:34;;;;;;;2.30;0.68;;;15.70;95.50;;;;;;5116093;28;20047;-77
2022/05/11 06:17:00;;;;;;;0.00;0.00;;;15.70;95.30;;;;;;5116101;28;20048;-77
2022/05/11 06:19:26;;;;;;;0.00;0.00;;;15.70;94.80;;;;;;5116313;28;20104;-78
2022/05/11 06:21:52;;;;;;;0.00;0.00;;;15.80;95.00;;;;;;5116323;28;20054;-78
2022/05/11 06:24:18;;;;;;;0.38;0.38;;;15.90;94.00;;;;;;5116195;28;20050;-78
2022/05/11 06:26:44;;;;;;;0.00;0.00;;;15.90;94.00;;;;;;5115822;28;20044;-78
2022/05/11 06:29:10;;;;;;;0.00;0.00;;;16.00;93.50;;;;;;5115799;28;20070;-77
2022/05/11 06:31:36;;;;;;;0.15;0.15;;;16.10;93.60;;;;;;5114825;28;20514;-78
2022/05/11 06:34:02;;;;;;;0.00;0.00;;;16.20;93.40;;;;;;5099235;28;20051;-78
2022/05/11 06:36:28;;;;;;;0.20;0.13;;;16.20;92.90;;;;;;5116314;28;20036;-78
2022/05/11 06:38:54;;;;;;;0.08;0.00;;;16.30;93.10;;;;;;5115931;28;20071;-77
2022/05/11 06:41:23;;;;;;;0.00;0.00;;;16.30;93.20;;;;;;5098888;28;20130;-77
2022/05/11 06:43:51;;;;;;;0.10;0.10;;;16.30;93.00;;;;;;5098641;28;20176;-78
2022/05/11 06:46:20;;;;;;;0.00;0.00;;;16.30;92.50;;;;;;5098886;28;20062;-78
2022/05/11 06:48:46;;;;;;;0.08;0.08;;;16.40;92.20;;;;;;5115466;28;20126;-78
2022/05/11 06:51:16;;;;;;;0.00;0.00;;;16.60;92.70;;;;;;5098769;28;20043;-77
2022/05/11 06:59:24;;;;;;;0.30;0.30;;;17.10;91.90;;;;;;5115690;28;20059;-78
2022/05/11 07:01:52;;;;;;;0.15;0.00;;;17.20;90.60;;;;;;5098405;28;20327;-78
2022/05/11 07:04:20;;;;;;;0.22;0.08;;;17.40;90.00;;;;;;5115580;28;20495;-78
2022/05/11 07:06:46;;;;;;;0.30;0.13;;;17.60;89.60;;;;;;5098203;28;20177;-77
2022/05/11 07:09:12;;;;;;;0.20;0.20;;;17.80;88.40;;;;;;5115355;28;20071;-78
2022/05/11 07:14:22;;;;;;;0.00;0.00;;;18.30;87.50;;;;;;5115835;28;20044;-78
2022/05/11 07:16:48;;;;;;;0.00;0.00;;;18.50;85.80;;;;;;5115186;28;20499;-78
2022/05/11 07:19:14;;;;;;;0.22;0.08;;;18.70;85.40;;;;;;5115129;28;20054;-77
2022/05/11 07:21:40;;;;;;;0.00;0.00;;;18.60;83.70;;;;;;5115990;28;20058;-78
2022/05/11 07:24:06;;;;;;;0.00;0.00;;;18.50;84.00;;;;;;5098333;28;20051;-78
2022/05/11 07:26:31;;;;;;;0.00;0.00;;;18.50;84.90;;;;;;5098439;28;20056;-78
2022/05/11 07:28:57;;;;;;;1.08;0.15;;;18.60;85.00;;;;;;5115004;28;20051;-77
2022/05/11 07:31:23;;;;;;;0.00;0.00;;;18.80;83.30;;;;;;5097859;28;20143;-78
2022/05/11 07:33:48;;;;;;;0.30;0.30;;;19.00;83.40;;;;;;5114348;28;20043;-79
2022/05/11 07:36:14;;;;;;;0.00;0.00;;;19.10;82.50;;;;;;5115069;28;20059;-78
2022/05/11 07:38:40;;;;;;;0.00;0.00;;;19.20;81.90;;;;;;5097719;28;20050;-78
2022/05/11 07:41:06;;;;;;;0.00;0.00;;;19.20;80.70;;;;;;5114696;28;20059;-78
2022/05/11 07:43:32;;;;;;;0.00;0.00;;;19.20;80.00;;;;;;5114598;28;20047;-78
2022/05/11 07:45:58;;;;;;;0.35;0.10;;;19.10;79.70;;;;;;5114954;28;20048;-78
2022/05/11 07:48:24;;;;;;;0.00;0.00;;;18.90;79.20;;;;;;5113974;28;20070;-78
2022/05/11 07:50:54;;;;;;;0.00;0.00;;;18.80;79.00;;;;;;5114690;28;20480;-78
2022/05/11 07:53:20;;;;;;;0.00;0.00;;;18.80;79.90;;;;;;5114680;28;20066;-78
2022/05/11 07:55:45;;;;;;;0.00;0.00;;;18.70;79.90;;;;;;5114846;28;20036;-78
2022/05/11 08:01:13;;;;;;;0.00;0.00;;;18.50;79.00;;;;;;5096951;28;20047;-78
2022/05/11 08:03:38;;;;;;;2.00;0.20;;;18.50;78.70;;;;;;5078983;28;20059;-78
2022/05/11 08:06:05;;;;;;;0.00;0.00;;;18.50;78.20;;;;;;5096138;28;20047;-78
2022/05/11 08:08:31;;;;;;;0.00;0.00;;;18.50;78.10;;;;;;5095876;28;20056;-78
2022/05/11 08:10:56;;;;;;;0.10;0.10;;;18.40;78.50;;;;;;5095814;28;20056;-78
2022/05/11 08:13:22;;;;;;;0.00;0.00;;;18.30;78.10;;;;;;5079392;28;20176;-78
2022/05/11 08:15:49;;;;;;;0.00;0.00;;;18.10;78.30;;;;;;5095758;28;20475;-78
2022/05/11 08:18:15;;;;;;;0.00;0.00;;;18.10;79.30;;;;;;5079151;28;20055;-78
2022/05/11 08:20:43;;;;;;;0.13;0.13;;;18.10;78.50;;;;;;5095998;28;20447;-78
2022/05/11 08:23:10;;;;;;;2.38;0.38;;;18.20;78.80;;;;;;5095957;28;20070;-78
2022/05/11 08:25:38;;;;;;;0.00;0.00;;;18.40;78.70;;;;;;5095917;28;20120;-78
2022/05/11 08:28:13;;;;;;;0.00;0.00;;;18.70;79.30;;;;;;5095702;28;20055;-79
2022/05/11 08:33:24;;;;;;;0.00;0.00;;;18.90;77.30;;;;;;5096162;28;20054;-78
2022/05/11 08:35:56;;;;;;;0.00;0.00;;;18.90;77.50;;;;;;5108963;28;20064;-78
2022/05/11 08:38:25;;;;;;;0.00;0.00;;;19.10;76.40;;;;;;5113638;28;20086;-78
2022/05/11 08:40:56;;;;;;;0.00;0.00;;;18.90;75.10;;;;;;5113718;28;20122;-79
2022/05/11 08:43:22;;;;;;;0.00;0.00;;;19.10;73.80;;;;;;5113890;28;20049;-79
2022/05/11 08:46:08;;;;;;;0.00;0.00;;;19.10;73.30;;;;;;5113180;28;20418;-78
2022/05/11 08:48:59;;;;;;;0.00;0.00;;;19.20;75.20;;;;;;5113593;28;20047;-78
2022/05/11 08:51:48;;;;;;;0.00;0.00;;;19.40;74.70;;;;;;5113545;28;20046;-79
2022/05/11 08:54:15;;;;;;;0.20;0.20;;;19.60;73.20;;;;;;5054783;28;20056;-79
2022/05/11 08:56:43;;;;;;;0.00;0.00;;;19.70;72.90;;;;;;5055225;28;20088;-78
2022/05/11 08:59:17;;;;;;;0.20;0.20;;;19.70;74.00;;;;;;5038231;28;20060;-78
2022/05/11 09:01:54;;;;;;;0.00;0.00;;;19.70;74.10;;;;;;5055482;28;20036;-78
2022/05/11 09:04:25;;;;;;;0.00;0.00;;;19.90;73.30;;;;;;5038607;28;20096;-78
2022/05/11 09:06:51;;;;;;;0.00;0.00;;;20.10;73.00;;;;;;5055138;28;20051;-78
2022/05/11 09:09:17;;;;;;;0.00;0.00;;;20.30;73.00;;;;;;5038778;28;20048;-78
2022/05/11 09:11:49;;;;;;;0.00;0.00;;;20.40;72.30;;;;;;5054644;28;20401;-78
2022/05/11 09:14:19;;;;;;;0.80;0.28;;;20.50;71.50;;;;;;5055499;28;20049;-78
2022/05/11 09:16:48;;;;;;;0.00;0.00;;;20.50;71.40;;;;;;5055267;28;20373;-78
2022/05/11 09:19:18;;;;;;;0.10;0.00;;;20.50;71.70;;;;;;5055103;28;20048;-78
2022/05/11 09:21:53;;;;;;;0.00;0.00;;;20.60;70.80;;;;;;5055122;28;20566;-79
2022/05/11 09:24:21;;;;;;;0.10;0.10;;;20.60;71.30;;;;;;5037581;28;20056;-78
2022/05/11 09:27:04;;;;;;;0.20;0.10;;;20.70;71.10;;;;;;5054930;28;20092;-79
2022/05/11 09:29:37;;;;;;;0.00;0.00;;;20.90;71.80;;;;;;5055156;28;20049;-79
2022/05/11 09:32:31;;;;;;;0.00;0.00;;;21.10;70.10;;;;;;5103185;28;20047;-79
2022/05/11 09:35:36;;;;;;;0.00;0.00;;;21.30;69.70;;;;;;5113619;28;20058;-79
2022/05/11 09:38:18;;;;;;;0.10;0.10;;;21.30;69.40;;;;;;5113376;28;20482;-79
2022/05/11 09:41:20;;;;;;;1.20;0.28;;;21.50;69.20;;;;;;5113268;28;20039;-79
2022/05/11 09:43:58;;;;;;;0.00;0.00;;;21.50;69.40;;;;;;5054835;28;20524;-79
2022/05/11 09:46:27;;;;;;;0.00;0.00;;;21.60;69.60;;;;;;5055098;28;20044;-79
2022/05/11 09:48:57;;;;;;;0.00;0.00;;;21.60;69.20;;;;;;5037629;28;20577;-79
2022/05/11 09:51:33;;;;;;;0.10;0.08;;;21.80;68.40;;;;;;5054638;28;20123;-79
2022/05/11 09:54:08;;;;;;;0.40;0.35;;;21.80;68.10;;;;;;5038204;28;20154;-78
2022/05/11 09:56:36;;;;;;;0.00;0.00;;;21.70;67.10;;;;;;5054764;28;20512;-79
2022/05/11 09:59:26;;;;;;;0.00;0.00;;;21.80;67.90;;;;;;5054685;28;20048;-79
2022/05/11 10:02:13;;;;;;;0.00;0.00;;;21.80;67.30;;;;;;5055198;28;20091;-78
2022/05/11 10:04:43;;;;;;;0.00;0.00;;;22.00;67.90;;;;;;5054721;28;20442;-78
2022/05/11 10:07:13;;;;;;;0.00;0.00;;;22.00;66.60;;;;;;5057313;28;20496;-78
2022/05/11 10:09:45;;;;;;;0.10;0.10;;;22.00;67.40;;;;;;5041590;28;20451;-78
2022/05/11 10:12:26;;;;;;;0.00;0.00;;;22.20;67.20;;;;;;5057884;28;20096;-78
2022/05/11 10:23:39;;;;;;;0.00;0.00;;;22.40;65.80;;;;;;5116264;28;20131;-78
2022/05/11 10:26:11;;;;;;;0.00;0.00;;;22.50;65.80;;;;;;5116030;28;20043;-78
2022/05/11 10:28:40;;;;;;;2.28;0.47;;;22.60;64.20;;;;;;5115863;28;20050;-78
2022/05/11 10:31:33;;;;;;;0.00;0.00;;;22.80;64.20;;;;;;5098697;28;20471;-78
2022/05/11 10:34:16;;;;;;;0.00;0.00;;;22.90;64.40;;;;;;5116168;28;20043;-78
2022/05/11 10:36:45;;;;;;;0.00;0.00;;;22.90;64.40;;;;;;5116144;28;20039;-78
2022/05/11 10:39:53;;;;;;;0.65;0.30;;;23.10;64.60;;;;;;5098876;28;20059;-78
2022/05/11 10:42:29;;;;;;;0.00;0.00;;;23.10;63.30;;;;;;5082131;28;20112;-78
2022/05/11 10:45:11;;;;;;;0.00;0.00;;;23.10;63.30;;;;;;5098745;28;20039;-79
2022/05/11 10:47:54;;;;;;;0.20;0.03;;;23.30;64.10;;;;;;5098325;28;20399;-78
2022/05/11 10:50:51;;;;;;;0.00;0.00;;;23.50;63.90;;;;;;5098972;28;20051;-79
2022/05/11 10:53:39;;;;;;;0.00;0.00;;;23.60;62.30;;;;;;5098804;28;20048;-78
2022/05/11 10:56:13;;;;;;;0.10;0.00;;;23.70;62.50;;;;;;5116640;28;20055;-79
2022/05/11 10:58:54;;;;;;;0.00;0.00;;;23.80;62.00;;;;;;5116366;28;20086;-79
2022/05/11 11:01:22;;;;;;;0.00;0.00;;;23.90;62.90;;;;;;5115977;28;20039;-78
2022/05/11 11:03:59;;;;;;;0.00;0.00;;;24.10;61.90;;;;;;5098806;28;20510;-79
2022/05/11 11:09:27;;;;;;;0.00;0.00;;;24.00;61.00;;;;;;5115870;28;20089;-78
2022/05/11 11:12:20;;;;;;;0.00;0.00;;;24.20;62.40;;;;;;5098722;28;20052;-79
2022/05/11 11:14:50;;;;;;;0.00;0.00;;;24.20;60.20;;;;;;5115327;28;20108;-79
2022/05/11 11:17:19;;;;;;;0.00;0.00;;;24.20;61.80;;;;;;5114598;28;20510;-79
2022/05/11 11:19:50;;;;;;;0.00;0.00;;;24.40;62.20;;;;;;5115071;28;20043;-79
2022/05/11 11:22:15;;;;;;;0.00;0.00;;;24.30;61.30;;;;;;5115262;28;20086;-79
2022/05/11 11:24:43;;;;;;;0.55;0.10;;;24.20;60.40;;;;;;5114931;28;20090;-79
2022/05/11 11:27:10;;;;;;;0.00;0.00;;;24.10;59.70;;;;;;5114586;28;20155;-79
2022/05/11 11:30:11;;;;;;;0.00;0.00;;;24.00;59.50;;;;;;5115064;28;20043;-79
2022/05/11 11:33:10;;;;;;;0.00;0.00;;;24.00;60.80;;;;;;5040353;28;20056;-79
2022/05/11 11:35:58;;;;;;;0.00;0.00;;;24.30;60.50;;;;;;5056635;28;20048;-79
2022/05/11 11:38:39;;;;;;;0.03;0.00;;;24.20;59.40;;;;;;5040248;28;20043;-79
2022/05/11 11:41:22;;;;;;;0.00;0.00;;;24.10;59.50;;;;;;5057086;28;20070;-79
2022/05/11 11:43:55;;;;;;;0.00;0.00;;;24.20;60.70;;;;;;5056602;28;20067;-79
2022/05/11 11:46:33;;;;;;;0.00;0.00;;;24.20;59.50;;;;;;5056747;28;20049;-79
2022/05/11 11:49:11;;;;;;;0.00;0.00;;;24.20;59.40;;;;;;5040003;28;20057;-79
2022/05/11 11:51:56;;;;;;;0.05;0.05;;;24.30;59.60;;;;;;5056451;28;20079;-79
2022/05/11 11:54:37;;;;;;;0.00;0.00;;;24.40;59.00;;;;;;5039802;28;20078;-79
2022/05/11 11:57:08;;;;;;;0.00;0.00;;;24.50;59.10;;;;;;5054477;28;20052;-79
2022/05/11 11:59:39;;;;;;;0.00;0.00;;;24.60;61.40;;;;;;5056082;28;20487;-80
2022/05/11 12:02:27;;;;;;;2.28;0.55;;;24.60;59.50;;;;;;5039227;28;20063;-80
2022/05/11 12:05:12;;;;;;;0.00;0.00;;;24.80;59.90;;;;;;5056569;28;20052;-80
2022/05/11 12:16:24;;;;;;;0.00;0.00;;;24.80;58.80;;;;;;5114013;28;20047;-78
2022/05/11 12:18:50;;;;;;;0.00;0.00;;;24.80;59.00;;;;;;5114262;28;20061;-79
2022/05/11 12:21:34;;;;;;;0.00;0.00;;;25.00;58.50;;;;;;5114176;28;20043;-78
2022/05/11 12:24:03;;;;;;;0.08;0.00;;;25.00;58.20;;;;;;5097150;28;20403;-78
2022/05/11 12:26:38;;;;;;;0.00;0.00;;;24.90;57.50;;;;;;5097583;28;20055;-79
2022/05/11 12:32:07;;;;;;;0.00;0.00;;;24.80;57.30;;;;;;5113456;28;20055;-78
2022/05/11 12:34:40;;;;;;;0.17;0.17;;;24.80;58.80;;;;;;5096925;28;20054;-79
2022/05/11 12:37:22;;;;;;;0.00;0.00;;;24.80;57.80;;;;;;5114118;28;20050;-78
2022/05/11 12:40:04;;;;;;;0.00;0.00;;;24.80;57.00;;;;;;5113813;28;20078;-79
2022/05/11 12:42:50;;;;;;;0.30;0.10;;;24.80;58.30;;;;;;5096843;28;20103;-79
2022/05/11 12:45:42;;;;;;;0.20;0.00;;;24.90;59.40;;;;;;5096448;28;20060;-79
2022/05/11 12:48:09;;;;;;;1.55;0.47;;;25.10;58.90;;;;;;5038156;28;20044;-76
2022/05/11 12:50:38;;;;;;;0.00;0.00;;;25.20;57.70;;;;;;5055178;28;20059;-76
2022/05/11 12:53:15;;;;;;;0.00;0.00;;;25.40;58.60;;;;;;5038456;28;20048;-76
2022/05/11 12:55:42;;;;;;;0.00;0.00;;;25.50;58.50;;;;;;5038698;28;20546;-76
2022/05/11 12:58:08;;;;;;;0.00;0.00;;;25.60;58.00;;;;;;5038473;28;20036;-77
2022/05/11 13:00:35;;;;;;;0.00;0.00;;;25.70;56.90;;;;;;5055230;28;20051;-79
2022/05/11 13:03:23;;;;;;;5.00;0.28;;;25.70;56.70;;;;;;5055113;28;20467;-78
2022/05/11 13:05:50;;;;;;;0.00;0.00;;;25.40;55.30;;;;;;5038808;28;20052;-79
2022/05/11 13:08:16;;;;;;;0.03;0.00;;;25.40;56.60;;;;;;5054830;28;20044;-78
2022/05/11 13:10:43;;;;;;;0.00;0.00;;;25.40;56.90;;;;;;5055004;28;20052;-79
2022/05/11 13:13:15;;;;;;;0.00;0.00;;;25.40;55.70;;;;;;5036860;28;20159;-78
2022/05/11 13:15:46;;;;;;;0.10;0.10;;;25.40;55.50;;;;;;5055334;28;20530;-78
2022/05/11 13:18:24;;;;;;;0.03;0.00;;;25.30;54.80;;;;;;5038231;28;20052;-79
2022/05/11 13:20:51;;;;;;;0.00;0.00;;;25.40;56.10;;;;;;5055293;28;20048;-79
2022/05/11 13:23:29;;;;;;;0.00;0.00;;;25.40;57.20;;;;;;5055303;28;20049;-79
2022/05/11 13:25:58;;;;;;;0.00;0.00;;;25.50;56.10;;;;;;5086017;28;20059;-79
2022/05/11 13:28:23;;;;;;;0.00;0.00;;;25.40;56.90;;;;;;5095960;28;20036;-79
2022/05/11 13:30:53;;;;;;;0.00;0.00;;;25.40;55.90;;;;;;5095376;28;20052;-79
2022/05/11 13:33:37;;;;;;;3.20;1.25;;;25.30;55.80;;;;;;5093341;28;20526;-79
2022/05/11 13:36:15;;;;;;;0.00;0.00;;;25.30;56.60;;;;;;5093428;28;20126;-79
2022/05/11 13:39:19;;;;;;;0.03;0.00;;;25.30;57.10;;;;;;5096146;28;20062;-79
2022/05/11 13:41:53;;;;;;;0.43;0.10;;;25.20;56.90;;;;;;5095380;28;20501;-79
2022/05/11 13:44:30;;;;;;;0.00;0.00;;;25.20;57.30;;;;;;5098153;28;20058;-79
2022/05/11 13:49:46;;;;;;;0.00;0.00;;;25.20;57.20;;;;;;5094479;28;20142;-79
2022/05/11 13:52:34;;;;;;;0.30;0.30;;;25.10;57.10;;;;;;5095412;28;20497;-79
2022/05/11 13:55:01;;;;;;;0.60;0.10;;;25.00;56.40;;;;;;5061719;28;20094;-79
2022/05/11 13:57:38;;;;;;;0.00;0.00;;;25.00;58.20;;;;;;5094951;28;20051;-79
2022/05/11 14:00:21;;;;;;;0.00;0.00;;;24.90;56.60;;;;;;5077391;28;20082;-79